sensor_id;sensor_type;location;lat;lon;timestamp;P1;durP1;ratioP1;P2;durP2;ratioP2
71836;SDS011;59686;51.716;7.016;2022-11-11T00:00:32;5.45;;;2.35;;
71836;SDS011;59686;51.716;7.016;2022-11-11T00:02:58;4.55;;;2.63;;
71836;SDS011;59686;51.716;7.016;2022-11-11T00:05:24;4.47;;;2.60;;
71836;SDS011;59686;51.716;7.016;2022-11-11T00:07:51;5.72;;;2.75;;
71836;SDS011;59686;51.716;7.016;2022-11-11T00:10:17;6.13;;;2.80;;
71836;SDS011;59686;51.716;7.016;2022-11-11T00:12:44;3.83;;;2.45;;
71836;SDS011;59686;51.716;7.016;2022-11-11T00:15:10;6.95;;;3.17;;
71836;SDS011;59686;51.716;7.016;2022-11-11T00:17:35;5.45;;;2.88;;
71836;SDS011;59686;51.716;7.016;2022-11-11T00:20:20;4.53;;;2.97;;
71836;SDS011;59686;51.716;7.016;2022-11-11T00:23:04;4.57;;;2.53;;
71836;SDS011;59686;51.716;7.016;2022-11-11T00:25:52;5.20;;;2.92;;
71836;SDS011;59686;51.716;7.016;2022-11-11T00:28:18;5.88;;;2.70;;
71836;SDS011;59686;51.716;7.016;2022-11-11T00:30:44;5.18;;;2.75;;
71836;SDS011;59686;51.716;7.016;2022-11-11T00:33:09;6.05;;;2.67;;
71836;SDS011;59686;51.716;7.016;2022-11-11T00:35:35;4.55;;;2.80;;
71836;SDS011;59686;51.716;7.016;2022-11-11T00:38:26;4.53;;;2.97;;
71836;SDS011;59686;51.716;7.016;2022-11-11T00:41:11;4.80;;;2.97;;
71836;SDS011;59686;51.716;7.016;2022-11-11T00:43:38;7.13;;;2.95;;
71836;SDS011;59686;51.716;7.016;2022-11-11T00:46:04;5.55;;;2.90;;
71836;SDS011;59686;51.716;7.016;2022-11-11T00:48:48;5.38;;;2.90;;
71836;SDS011;59686;51.716;7.016;2022-11-11T00:51:33;3.63;;;2.58;;
71836;SDS011;59686;51.716;7.016;2022-11-11T00:53:58;6.55;;;3.20;;
71836;SDS011;59686;51.716;7.016;2022-11-11T00:56:24;4.85;;;3.03;;
71836;SDS011;59686;51.716;7.016;2022-11-11T00:58:50;4.78;;;3.03;;
71836;SDS011;59686;51.716;7.016;2022-11-11T01:01:16;4.65;;;2.95;;
71836;SDS011;59686;51.716;7.016;2022-11-11T01:03:42;4.93;;;3.15;;
71836;SDS011;59686;51.716;7.016;2022-11-11T01:06:09;5.13;;;3.05;;
71836;SDS011;59686;51.716;7.016;2022-11-11T01:08:36;5.90;;;3.35;;
71836;SDS011;59686;51.716;7.016;2022-11-11T01:11:02;4.32;;;2.85;;
71836;SDS011;59686;51.716;7.016;2022-11-11T01:13:29;6.13;;;2.80;;
71836;SDS011;59686;51.716;7.016;2022-11-11T01:16:00;3.80;;;3.10;;
71836;SDS011;59686;51.716;7.016;2022-11-11T01:18:28;7.78;;;3.20;;
71836;SDS011;59686;51.716;7.016;2022-11-11T01:21:04;6.25;;;3.28;;
71836;SDS011;59686;51.716;7.016;2022-11-11T01:23:32;5.32;;;3.30;;
71836;SDS011;59686;51.716;7.016;2022-11-11T01:26:00;5.43;;;3.00;;
71836;SDS011;59686;51.716;7.016;2022-11-11T01:28:27;3.60;;;2.75;;
71836;SDS011;59686;51.716;7.016;2022-11-11T01:30:52;5.18;;;2.97;;
71836;SDS011;59686;51.716;7.016;2022-11-11T01:33:18;4.50;;;2.90;;
71836;SDS011;59686;51.716;7.016;2022-11-11T01:35:50;4.25;;;3.30;;
71836;SDS011;59686;51.716;7.016;2022-11-11T01:38:15;5.18;;;2.97;;
71836;SDS011;59686;51.716;7.016;2022-11-11T01:40:45;4.75;;;2.92;;
71836;SDS011;59686;51.716;7.016;2022-11-11T01:43:19;4.32;;;2.90;;
71836;SDS011;59686;51.716;7.016;2022-11-11T01:48:34;5.32;;;3.42;;
71836;SDS011;59686;51.716;7.016;2022-11-11T01:54:06;4.65;;;2.70;;
71836;SDS011;59686;51.716;7.016;2022-11-11T01:56:35;4.75;;;3.13;;
71836;SDS011;59686;51.716;7.016;2022-11-11T01:59:03;6.32;;;3.17;;
71836;SDS011;59686;51.716;7.016;2022-11-11T02:01:32;4.97;;;3.00;;
71836;SDS011;59686;51.716;7.016;2022-11-11T02:03:59;4.65;;;3.00;;
71836;SDS011;59686;51.716;7.016;2022-11-11T02:06:45;3.40;;;2.90;;
71836;SDS011;59686;51.716;7.016;2022-11-11T02:09:14;3.97;;;2.80;;
71836;SDS011;59686;51.716;7.016;2022-11-11T02:11:40;3.72;;;2.80;;
71836;SDS011;59686;51.716;7.016;2022-11-11T02:14:25;4.40;;;2.97;;
71836;SDS011;59686;51.716;7.016;2022-11-11T02:16:59;3.85;;;2.92;;
71836;SDS011;59686;51.716;7.016;2022-11-11T02:22:04;4.85;;;2.88;;
71836;SDS011;59686;51.716;7.016;2022-11-11T02:24:35;6.28;;;3.17;;
71836;SDS011;59686;51.716;7.016;2022-11-11T02:27:01;4.47;;;3.05;;
71836;SDS011;59686;51.716;7.016;2022-11-11T02:29:29;6.55;;;3.00;;
71836;SDS011;59686;51.716;7.016;2022-11-11T02:31:57;4.28;;;3.03;;
71836;SDS011;59686;51.716;7.016;2022-11-11T02:34:32;5.40;;;3.20;;
71836;SDS011;59686;51.716;7.016;2022-11-11T02:36:58;6.13;;;2.95;;
71836;SDS011;59686;51.716;7.016;2022-11-11T02:39:26;4.97;;;3.00;;
71836;SDS011;59686;51.716;7.016;2022-11-11T02:41:52;7.07;;;3.38;;
71836;SDS011;59686;51.716;7.016;2022-11-11T02:44:20;4.20;;;3.03;;
71836;SDS011;59686;51.716;7.016;2022-11-11T02:46:46;5.72;;;3.10;;
71836;SDS011;59686;51.716;7.016;2022-11-11T02:49:12;4.80;;;3.20;;
71836;SDS011;59686;51.716;7.016;2022-11-11T02:51:38;3.55;;;2.67;;
71836;SDS011;59686;51.716;7.016;2022-11-11T02:54:04;5.82;;;3.28;;
71836;SDS011;59686;51.716;7.016;2022-11-11T02:56:30;5.07;;;3.10;;
71836;SDS011;59686;51.716;7.016;2022-11-11T02:59:14;4.63;;;3.10;;
71836;SDS011;59686;51.716;7.016;2022-11-11T03:01:40;4.35;;;2.85;;
71836;SDS011;59686;51.716;7.016;2022-11-11T03:04:05;5.50;;;3.35;;
71836;SDS011;59686;51.716;7.016;2022-11-11T03:06:31;5.82;;;3.20;;
71836;SDS011;59686;51.716;7.016;2022-11-11T03:08:57;5.93;;;3.20;;
71836;SDS011;59686;51.716;7.016;2022-11-11T03:11:22;6.17;;;3.50;;
71836;SDS011;59686;51.716;7.016;2022-11-11T03:13:58;4.78;;;3.20;;
71836;SDS011;59686;51.716;7.016;2022-11-11T03:16:24;5.95;;;3.33;;
71836;SDS011;59686;51.716;7.016;2022-11-11T03:19:09;5.43;;;2.90;;
71836;SDS011;59686;51.716;7.016;2022-11-11T03:21:35;5.53;;;3.37;;
71836;SDS011;59686;51.716;7.016;2022-11-11T03:24:00;7.03;;;3.20;;
71836;SDS011;59686;51.716;7.016;2022-11-11T03:26:26;7.00;;;3.45;;
71836;SDS011;59686;51.716;7.016;2022-11-11T03:28:52;5.40;;;3.00;;
71836;SDS011;59686;51.716;7.016;2022-11-11T03:31:18;5.28;;;3.05;;
71836;SDS011;59686;51.716;7.016;2022-11-11T03:33:59;6.85;;;3.15;;
71836;SDS011;59686;51.716;7.016;2022-11-11T03:36:43;7.80;;;3.40;;
71836;SDS011;59686;51.716;7.016;2022-11-11T03:39:27;6.43;;;3.08;;
71836;SDS011;59686;51.716;7.016;2022-11-11T03:41:54;5.72;;;3.50;;
71836;SDS011;59686;51.716;7.016;2022-11-11T03:44:22;4.22;;;2.92;;
71836;SDS011;59686;51.716;7.016;2022-11-11T03:46:48;5.50;;;3.30;;
71836;SDS011;59686;51.716;7.016;2022-11-11T03:49:14;5.00;;;2.97;;
71836;SDS011;59686;51.716;7.016;2022-11-11T03:51:39;5.05;;;2.90;;
71836;SDS011;59686;51.716;7.016;2022-11-11T03:54:08;5.85;;;3.03;;
71836;SDS011;59686;51.716;7.016;2022-11-11T03:56:34;6.65;;;3.38;;
71836;SDS011;59686;51.716;7.016;2022-11-11T03:58:59;5.13;;;3.28;;
71836;SDS011;59686;51.716;7.016;2022-11-11T04:01:25;6.47;;;3.25;;
71836;SDS011;59686;51.716;7.016;2022-11-11T04:04:21;4.53;;;3.33;;
71836;SDS011;59686;51.716;7.016;2022-11-11T04:07:06;5.63;;;3.72;;
71836;SDS011;59686;51.716;7.016;2022-11-11T04:09:52;6.17;;;3.67;;
71836;SDS011;59686;51.716;7.016;2022-11-11T04:12:36;7.05;;;4.05;;
71836;SDS011;59686;51.716;7.016;2022-11-11T04:15:24;7.13;;;4.78;;
71836;SDS011;59686;51.716;7.016;2022-11-11T04:18:08;7.55;;;4.68;;
71836;SDS011;59686;51.716;7.016;2022-11-11T04:20:33;8.80;;;5.30;;
71836;SDS011;59686;51.716;7.016;2022-11-11T04:23:17;9.70;;;5.25;;
71836;SDS011;59686;51.716;7.016;2022-11-11T04:25:43;9.60;;;5.70;;
71836;SDS011;59686;51.716;7.016;2022-11-11T04:28:24;9.73;;;5.60;;
71836;SDS011;59686;51.716;7.016;2022-11-11T04:31:08;8.93;;;5.43;;
71836;SDS011;59686;51.716;7.016;2022-11-11T04:33:33;12.25;;;5.72;;
71836;SDS011;59686;51.716;7.016;2022-11-11T04:35:59;8.73;;;5.60;;
71836;SDS011;59686;51.716;7.016;2022-11-11T04:38:25;9.07;;;5.50;;
71836;SDS011;59686;51.716;7.016;2022-11-11T04:41:09;9.40;;;5.43;;
71836;SDS011;59686;51.716;7.016;2022-11-11T04:43:36;9.27;;;5.73;;
71836;SDS011;59686;51.716;7.016;2022-11-11T04:46:27;10.80;;;6.17;;
71836;SDS011;59686;51.716;7.016;2022-11-11T04:48:52;10.60;;;5.83;;
71836;SDS011;59686;51.716;7.016;2022-11-11T04:51:18;8.47;;;5.30;;
71836;SDS011;59686;51.716;7.016;2022-11-11T04:53:44;9.73;;;5.80;;
71836;SDS011;59686;51.716;7.016;2022-11-11T04:56:09;8.35;;;5.63;;
71836;SDS011;59686;51.716;7.016;2022-11-11T04:58:55;9.07;;;5.80;;
71836;SDS011;59686;51.716;7.016;2022-11-11T05:01:39;9.47;;;6.17;;
71836;SDS011;59686;51.716;7.016;2022-11-11T05:04:24;9.43;;;5.47;;
71836;SDS011;59686;51.716;7.016;2022-11-11T05:06:50;11.77;;;6.13;;
71836;SDS011;59686;51.716;7.016;2022-11-11T05:09:34;10.20;;;5.77;;
71836;SDS011;59686;51.716;7.016;2022-11-11T05:11:59;10.50;;;5.73;;
71836;SDS011;59686;51.716;7.016;2022-11-11T05:14:31;9.17;;;5.73;;
71836;SDS011;59686;51.716;7.016;2022-11-11T05:17:15;11.40;;;5.87;;
71836;SDS011;59686;51.716;7.016;2022-11-11T05:20:00;8.50;;;5.50;;
71836;SDS011;59686;51.716;7.016;2022-11-11T05:22:44;8.50;;;5.20;;
71836;SDS011;59686;51.716;7.016;2022-11-11T05:25:10;8.27;;;5.00;;
71836;SDS011;59686;51.716;7.016;2022-11-11T05:27:57;8.70;;;5.03;;
71836;SDS011;59686;51.716;7.016;2022-11-11T05:30:24;9.30;;;5.17;;
71836;SDS011;59686;51.716;7.016;2022-11-11T05:32:50;7.90;;;5.10;;
71836;SDS011;59686;51.716;7.016;2022-11-11T05:35:18;7.97;;;4.87;;
71836;SDS011;59686;51.716;7.016;2022-11-11T05:37:44;7.17;;;5.10;;
71836;SDS011;59686;51.716;7.016;2022-11-11T05:40:29;6.43;;;4.90;;
71836;SDS011;59686;51.716;7.016;2022-11-11T05:42:55;6.97;;;5.07;;
71836;SDS011;59686;51.716;7.016;2022-11-11T05:45:21;6.47;;;5.28;;
71836;SDS011;59686;51.716;7.016;2022-11-11T05:47:48;9.67;;;5.10;;
71836;SDS011;59686;51.716;7.016;2022-11-11T05:50:14;6.17;;;4.43;;
71836;SDS011;59686;51.716;7.016;2022-11-11T05:52:40;7.80;;;4.73;;
71836;SDS011;59686;51.716;7.016;2022-11-11T05:55:12;7.20;;;4.73;;
71836;SDS011;59686;51.716;7.016;2022-11-11T05:57:37;8.87;;;4.70;;
71836;SDS011;59686;51.716;7.016;2022-11-11T06:00:03;8.77;;;5.15;;
71836;SDS011;59686;51.716;7.016;2022-11-11T06:02:29;7.87;;;4.90;;
71836;SDS011;59686;51.716;7.016;2022-11-11T06:05:02;5.13;;;4.30;;
71836;SDS011;59686;51.716;7.016;2022-11-11T06:07:28;6.93;;;4.50;;
71836;SDS011;59686;51.716;7.016;2022-11-11T06:09:53;5.73;;;4.37;;
71836;SDS011;59686;51.716;7.016;2022-11-11T06:12:42;7.97;;;4.77;;
71836;SDS011;59686;51.716;7.016;2022-11-11T06:15:26;7.97;;;4.43;;
71836;SDS011;59686;51.716;7.016;2022-11-11T06:17:52;6.97;;;4.80;;
71836;SDS011;59686;51.716;7.016;2022-11-11T06:20:18;6.63;;;4.57;;
71836;SDS011;59686;51.716;7.016;2022-11-11T06:22:46;6.50;;;4.00;;
71836;SDS011;59686;51.716;7.016;2022-11-11T06:25:21;6.67;;;4.23;;
71836;SDS011;59686;51.716;7.016;2022-11-11T06:28:06;5.27;;;4.20;;
71836;SDS011;59686;51.716;7.016;2022-11-11T06:30:32;5.43;;;4.30;;
71836;SDS011;59686;51.716;7.016;2022-11-11T06:32:57;5.77;;;4.17;;
71836;SDS011;59686;51.716;7.016;2022-11-11T06:35:23;7.40;;;4.30;;
71836;SDS011;59686;51.716;7.016;2022-11-11T06:37:49;6.43;;;4.37;;
71836;SDS011;59686;51.716;7.016;2022-11-11T06:40:14;7.97;;;4.57;;
71836;SDS011;59686;51.716;7.016;2022-11-11T06:42:40;5.33;;;4.13;;
71836;SDS011;59686;51.716;7.016;2022-11-11T06:45:06;4.93;;;3.70;;
71836;SDS011;59686;51.716;7.016;2022-11-11T06:47:32;4.77;;;3.70;;
71836;SDS011;59686;51.716;7.016;2022-11-11T06:49:57;7.13;;;3.93;;
71836;SDS011;59686;51.716;7.016;2022-11-11T06:55:18;6.20;;;3.80;;
71836;SDS011;59686;51.716;7.016;2022-11-11T06:57:43;5.93;;;3.80;;
71836;SDS011;59686;51.716;7.016;2022-11-11T07:00:09;7.97;;;4.00;;
71836;SDS011;59686;51.716;7.016;2022-11-11T07:02:35;6.37;;;4.10;;
71836;SDS011;59686;51.716;7.016;2022-11-11T07:05:01;5.77;;;3.40;;
71836;SDS011;59686;51.716;7.016;2022-11-11T07:07:26;6.70;;;3.67;;
71836;SDS011;59686;51.716;7.016;2022-11-11T07:09:52;5.63;;;3.60;;
71836;SDS011;59686;51.716;7.016;2022-11-11T07:12:20;7.33;;;3.83;;
71836;SDS011;59686;51.716;7.016;2022-11-11T07:14:50;7.10;;;3.87;;
71836;SDS011;59686;51.716;7.016;2022-11-11T07:17:16;6.73;;;4.10;;
71836;SDS011;59686;51.716;7.016;2022-11-11T07:19:42;5.87;;;3.60;;
71836;SDS011;59686;51.716;7.016;2022-11-11T07:22:07;5.23;;;3.20;;
71836;SDS011;59686;51.716;7.016;2022-11-11T07:27:26;6.20;;;3.57;;
71836;SDS011;59686;51.716;7.016;2022-11-11T07:29:54;4.43;;;3.47;;
71836;SDS011;59686;51.716;7.016;2022-11-11T07:35:20;5.13;;;3.33;;
71836;SDS011;59686;51.716;7.016;2022-11-11T07:37:46;4.93;;;3.07;;
71836;SDS011;59686;51.716;7.016;2022-11-11T07:40:13;5.77;;;3.43;;
71836;SDS011;59686;51.716;7.016;2022-11-11T07:42:40;6.10;;;3.67;;
71836;SDS011;59686;51.716;7.016;2022-11-11T07:45:07;4.83;;;3.53;;
71836;SDS011;59686;51.716;7.016;2022-11-11T07:47:34;3.93;;;2.93;;
71836;SDS011;59686;51.716;7.016;2022-11-11T07:50:00;7.17;;;3.60;;
71836;SDS011;59686;51.716;7.016;2022-11-11T07:52:27;5.53;;;3.23;;
71836;SDS011;59686;51.716;7.016;2022-11-11T07:54:53;4.90;;;3.53;;
71836;SDS011;59686;51.716;7.016;2022-11-11T07:57:18;6.27;;;3.37;;
71836;SDS011;59686;51.716;7.016;2022-11-11T07:59:44;6.50;;;3.50;;
71836;SDS011;59686;51.716;7.016;2022-11-11T08:02:10;5.40;;;3.20;;
71836;SDS011;59686;51.716;7.016;2022-11-11T08:04:36;7.47;;;3.27;;
71836;SDS011;59686;51.716;7.016;2022-11-11T08:07:02;5.10;;;3.40;;
71836;SDS011;59686;51.716;7.016;2022-11-11T08:09:28;4.63;;;3.50;;
71836;SDS011;59686;51.716;7.016;2022-11-11T08:11:54;5.57;;;3.40;;
71836;SDS011;59686;51.716;7.016;2022-11-11T08:14:38;6.77;;;3.37;;
71836;SDS011;59686;51.716;7.016;2022-11-11T08:17:04;4.57;;;3.10;;
71836;SDS011;59686;51.716;7.016;2022-11-11T08:19:29;5.30;;;3.10;;
71836;SDS011;59686;51.716;7.016;2022-11-11T08:22:07;7.37;;;3.57;;
71836;SDS011;59686;51.716;7.016;2022-11-11T08:24:33;3.53;;;3.10;;
71836;SDS011;59686;51.716;7.016;2022-11-11T08:26:59;5.97;;;3.40;;
71836;SDS011;59686;51.716;7.016;2022-11-11T08:29:24;4.93;;;3.27;;
71836;SDS011;59686;51.716;7.016;2022-11-11T08:31:53;4.10;;;3.00;;
71836;SDS011;59686;51.716;7.016;2022-11-11T08:34:18;5.97;;;3.27;;
71836;SDS011;59686;51.716;7.016;2022-11-11T08:36:44;3.87;;;3.13;;
71836;SDS011;59686;51.716;7.016;2022-11-11T08:39:10;5.73;;;3.37;;
71836;SDS011;59686;51.716;7.016;2022-11-11T08:41:37;5.73;;;3.70;;
71836;SDS011;59686;51.716;7.016;2022-11-11T08:44:04;5.57;;;3.60;;
71836;SDS011;59686;51.716;7.016;2022-11-11T08:46:30;3.40;;;3.00;;
71836;SDS011;59686;51.716;7.016;2022-11-11T08:48:55;4.40;;;3.30;;
71836;SDS011;59686;51.716;7.016;2022-11-11T08:51:21;7.47;;;3.40;;
71836;SDS011;59686;51.716;7.016;2022-11-11T08:53:47;4.67;;;3.53;;
71836;SDS011;59686;51.716;7.016;2022-11-11T08:56:13;6.37;;;3.30;;
71836;SDS011;59686;51.716;7.016;2022-11-11T08:58:38;4.83;;;3.30;;
71836;SDS011;59686;51.716;7.016;2022-11-11T09:01:09;5.60;;;3.27;;
71836;SDS011;59686;51.716;7.016;2022-11-11T09:03:37;5.10;;;3.07;;
71836;SDS011;59686;51.716;7.016;2022-11-11T09:06:03;6.87;;;2.97;;
71836;SDS011;59686;51.716;7.016;2022-11-11T09:08:29;3.73;;;3.23;;
71836;SDS011;59686;51.716;7.016;2022-11-11T09:10:56;5.07;;;3.40;;
71836;SDS011;59686;51.716;7.016;2022-11-11T09:13:22;7.30;;;3.37;;
71836;SDS011;59686;51.716;7.016;2022-11-11T09:15:48;5.23;;;3.23;;
71836;SDS011;59686;51.716;7.016;2022-11-11T09:18:13;6.47;;;3.23;;
71836;SDS011;59686;51.716;7.016;2022-11-11T09:20:39;5.53;;;2.77;;
71836;SDS011;59686;51.716;7.016;2022-11-11T09:23:05;4.60;;;3.00;;
71836;SDS011;59686;51.716;7.016;2022-11-11T09:25:30;5.13;;;2.93;;
71836;SDS011;59686;51.716;7.016;2022-11-11T09:27:57;4.53;;;2.97;;
71836;SDS011;59686;51.716;7.016;2022-11-11T09:30:25;4.17;;;2.90;;
71836;SDS011;59686;51.716;7.016;2022-11-11T09:32:52;8.03;;;2.93;;
71836;SDS011;59686;51.716;7.016;2022-11-11T09:35:26;5.03;;;2.80;;
71836;SDS011;59686;51.716;7.016;2022-11-11T09:37:55;5.43;;;3.07;;
71836;SDS011;59686;51.716;7.016;2022-11-11T09:40:23;4.87;;;2.97;;
71836;SDS011;59686;51.716;7.016;2022-11-11T09:51:02;4.90;;;2.77;;
71836;SDS011;59686;51.716;7.016;2022-11-11T09:53:32;4.50;;;2.90;;
71836;SDS011;59686;51.716;7.016;2022-11-11T09:56:10;4.07;;;2.77;;
71836;SDS011;59686;51.716;7.016;2022-11-11T10:01:14;6.13;;;2.70;;
71836;SDS011;59686;51.716;7.016;2022-11-11T10:03:46;6.07;;;3.53;;
71836;SDS011;59686;51.716;7.016;2022-11-11T10:06:19;4.13;;;2.90;;
71836;SDS011;59686;51.716;7.016;2022-11-11T10:08:54;3.93;;;2.50;;
71836;SDS011;59686;51.716;7.016;2022-11-11T10:11:38;5.87;;;2.80;;
71836;SDS011;59686;51.716;7.016;2022-11-11T10:14:21;7.37;;;3.43;;
71836;SDS011;59686;51.716;7.016;2022-11-11T10:22:56;3.07;;;2.30;;
71836;SDS011;59686;51.716;7.016;2022-11-11T10:25:30;4.20;;;2.80;;
71836;SDS011;59686;51.716;7.016;2022-11-11T10:27:57;5.20;;;2.90;;
71836;SDS011;59686;51.716;7.016;2022-11-11T10:30:27;4.60;;;2.80;;
71836;SDS011;59686;51.716;7.016;2022-11-11T10:35:29;5.10;;;2.70;;
71836;SDS011;59686;51.716;7.016;2022-11-11T10:40:40;4.33;;;2.50;;
71836;SDS011;59686;51.716;7.016;2022-11-11T10:43:13;6.50;;;2.87;;
71836;SDS011;59686;51.716;7.016;2022-11-11T10:45:53;4.50;;;3.03;;
71836;SDS011;59686;51.716;7.016;2022-11-11T10:51:26;4.40;;;2.67;;
71836;SDS011;59686;51.716;7.016;2022-11-11T10:54:01;10.90;;;3.17;;
71836;SDS011;59686;51.716;7.016;2022-11-11T10:56:37;5.17;;;2.60;;
71836;SDS011;59686;51.716;7.016;2022-11-11T10:59:31;3.87;;;2.43;;
71836;SDS011;59686;51.716;7.016;2022-11-11T11:02:16;6.00;;;2.50;;
71836;SDS011;59686;51.716;7.016;2022-11-11T11:08:08;6.70;;;3.07;;
71836;SDS011;59686;51.716;7.016;2022-11-11T11:10:43;6.63;;;2.60;;
71836;SDS011;59686;51.716;7.016;2022-11-11T11:13:15;5.50;;;2.77;;
71836;SDS011;59686;51.716;7.016;2022-11-11T11:15:46;5.47;;;2.80;;
71836;SDS011;59686;51.716;7.016;2022-11-11T11:18:20;3.97;;;2.60;;
71836;SDS011;59686;51.716;7.016;2022-11-11T11:20:56;7.10;;;2.70;;
71836;SDS011;59686;51.716;7.016;2022-11-11T11:23:34;4.95;;;2.58;;
71836;SDS011;59686;51.716;7.016;2022-11-11T11:26:00;7.10;;;3.30;;
71836;SDS011;59686;51.716;7.016;2022-11-11T11:28:27;6.50;;;2.77;;
71836;SDS011;59686;51.716;7.016;2022-11-11T11:30:57;6.00;;;3.00;;
71836;SDS011;59686;51.716;7.016;2022-11-11T11:33:24;7.30;;;3.03;;
71836;SDS011;59686;51.716;7.016;2022-11-11T11:35:50;5.83;;;3.30;;
71836;SDS011;59686;51.716;7.016;2022-11-11T11:38:40;5.17;;;3.00;;
71836;SDS011;59686;51.716;7.016;2022-11-11T11:41:07;5.27;;;2.90;;
71836;SDS011;59686;51.716;7.016;2022-11-11T11:43:37;4.77;;;2.70;;
71836;SDS011;59686;51.716;7.016;2022-11-11T11:46:25;7.60;;;2.80;;
71836;SDS011;59686;51.716;7.016;2022-11-11T11:51:41;6.47;;;3.10;;
71836;SDS011;59686;51.716;7.016;2022-11-11T11:56:57;6.03;;;3.13;;
71836;SDS011;59686;51.716;7.016;2022-11-11T11:59:29;6.07;;;3.03;;
71836;SDS011;59686;51.716;7.016;2022-11-11T12:24:58;6.57;;;3.00;;
71836;SDS011;59686;51.716;7.016;2022-11-11T12:30:11;4.47;;;2.65;;
71836;SDS011;59686;51.716;7.016;2022-11-11T12:33:39;5.63;;;2.83;;
71836;SDS011;59686;51.716;7.016;2022-11-11T12:35:50;6.07;;;2.77;;
71836;SDS011;59686;51.716;7.016;2022-11-11T12:41:33;7.33;;;2.70;;
71836;SDS011;59686;51.716;7.016;2022-11-11T12:44:27;6.77;;;2.73;;
71836;SDS011;59686;51.716;7.016;2022-11-11T12:47:19;3.75;;;2.33;;
71836;SDS011;59686;51.716;7.016;2022-11-11T12:49:56;6.90;;;2.73;;
71836;SDS011;59686;51.716;7.016;2022-11-11T13:00:55;4.60;;;2.33;;
71836;SDS011;59686;51.716;7.016;2022-11-11T13:06:24;4.90;;;2.30;;
71836;SDS011;59686;51.716;7.016;2022-11-11T13:09:28;5.07;;;2.43;;
71836;SDS011;59686;51.716;7.016;2022-11-11T13:17:16;4.97;;;2.40;;
71836;SDS011;59686;51.716;7.016;2022-11-11T13:19:43;4.95;;;2.45;;
71836;SDS011;59686;51.716;7.016;2022-11-11T13:24:41;4.05;;;2.20;;
71836;SDS011;59686;51.716;7.016;2022-11-11T13:27:13;3.90;;;2.20;;
71836;SDS011;59686;51.716;7.016;2022-11-11T13:32:33;3.88;;;2.13;;
71836;SDS011;59686;51.716;7.016;2022-11-11T13:35:27;5.65;;;2.88;;
71836;SDS011;59686;51.716;7.016;2022-11-11T13:38:31;4.63;;;2.17;;
71836;SDS011;59686;51.716;7.016;2022-11-11T13:41:00;5.25;;;2.40;;
71836;SDS011;59686;51.716;7.016;2022-11-11T13:43:33;4.68;;;2.65;;
71836;SDS011;59686;51.716;7.016;2022-11-11T13:46:04;5.53;;;2.63;;
71836;SDS011;59686;51.716;7.016;2022-11-11T13:48:35;5.53;;;2.58;;
71836;SDS011;59686;51.716;7.016;2022-11-11T13:53:56;5.93;;;2.65;;
71836;SDS011;59686;51.716;7.016;2022-11-11T13:56:30;4.95;;;2.67;;
71836;SDS011;59686;51.716;7.016;2022-11-11T13:59:05;4.80;;;2.78;;
71836;SDS011;59686;51.716;7.016;2022-11-11T14:01:41;7.20;;;2.80;;
71836;SDS011;59686;51.716;7.016;2022-11-11T14:04:07;5.32;;;2.55;;
71836;SDS011;59686;51.716;7.016;2022-11-11T14:06:35;7.57;;;2.75;;
71836;SDS011;59686;51.716;7.016;2022-11-11T14:09:12;5.78;;;3.10;;
71836;SDS011;59686;51.716;7.016;2022-11-11T14:12:37;4.47;;;3.30;;
71836;SDS011;59686;51.716;7.016;2022-11-11T14:15:11;5.78;;;2.78;;
71836;SDS011;59686;51.716;7.016;2022-11-11T14:20:50;5.65;;;2.92;;
71836;SDS011;59686;51.716;7.016;2022-11-11T14:25:43;5.38;;;2.85;;
71836;SDS011;59686;51.716;7.016;2022-11-11T14:28:19;5.13;;;2.72;;
71836;SDS011;59686;51.716;7.016;2022-11-11T14:30:57;3.97;;;2.57;;
71836;SDS011;59686;51.716;7.016;2022-11-11T14:36:16;5.60;;;2.72;;
71836;SDS011;59686;51.716;7.016;2022-11-11T14:41:55;3.95;;;2.80;;
71836;SDS011;59686;51.716;7.016;2022-11-11T14:49:45;4.13;;;2.80;;
71836;SDS011;59686;51.716;7.016;2022-11-11T14:57:25;4.10;;;2.72;;
71836;SDS011;59686;51.716;7.016;2022-11-11T15:00:18;3.38;;;2.47;;
71836;SDS011;59686;51.716;7.016;2022-11-11T15:02:50;6.03;;;2.42;;
71836;SDS011;59686;51.716;7.016;2022-11-11T15:13:51;3.60;;;2.13;;
71836;SDS011;59686;51.716;7.016;2022-11-11T15:30:23;3.42;;;2.05;;
71836;SDS011;59686;51.716;7.016;2022-11-11T15:33:11;2.30;;;2.00;;
71836;SDS011;59686;51.716;7.016;2022-11-11T15:38:16;4.15;;;2.40;;
71836;SDS011;59686;51.716;7.016;2022-11-11T15:40:44;3.60;;;2.60;;
71836;SDS011;59686;51.716;7.016;2022-11-11T15:43:40;4.65;;;2.67;;
71836;SDS011;59686;51.716;7.016;2022-11-11T15:46:06;4.65;;;2.67;;
71836;SDS011;59686;51.716;7.016;2022-11-11T15:48:32;3.72;;;2.47;;
71836;SDS011;59686;51.716;7.016;2022-11-11T15:54:13;4.55;;;2.53;;
71836;SDS011;59686;51.716;7.016;2022-11-11T15:56:43;2.85;;;2.30;;
71836;SDS011;59686;51.716;7.016;2022-11-11T15:59:16;3.22;;;2.67;;
71836;SDS011;59686;51.716;7.016;2022-11-11T16:01:46;3.17;;;2.40;;
71836;SDS011;59686;51.716;7.016;2022-11-11T16:04:29;5.03;;;2.70;;
71836;SDS011;59686;51.716;7.016;2022-11-11T16:06:54;4.13;;;2.58;;
71836;SDS011;59686;51.716;7.016;2022-11-11T16:09:25;4.07;;;2.70;;
71836;SDS011;59686;51.716;7.016;2022-11-11T16:11:54;6.45;;;2.97;;
71836;SDS011;59686;51.716;7.016;2022-11-11T16:14:24;4.03;;;2.65;;
71836;SDS011;59686;51.716;7.016;2022-11-11T16:17:07;3.63;;;2.75;;
71836;SDS011;59686;51.716;7.016;2022-11-11T16:19:37;4.43;;;3.15;;
71836;SDS011;59686;51.716;7.016;2022-11-11T16:24:41;7.75;;;2.97;;
71836;SDS011;59686;51.716;7.016;2022-11-11T16:27:10;3.97;;;2.55;;
71836;SDS011;59686;51.716;7.016;2022-11-11T16:29:40;4.88;;;3.13;;
71836;SDS011;59686;51.716;7.016;2022-11-11T16:34:51;4.72;;;3.20;;
71836;SDS011;59686;51.716;7.016;2022-11-11T16:37:18;5.10;;;3.03;;
71836;SDS011;59686;51.716;7.016;2022-11-11T16:39:46;4.10;;;3.05;;
71836;SDS011;59686;51.716;7.016;2022-11-11T16:42:16;5.55;;;3.10;;
71836;SDS011;59686;51.716;7.016;2022-11-11T16:44:56;4.30;;;3.03;;
71836;SDS011;59686;51.716;7.016;2022-11-11T16:53:22;4.78;;;3.15;;
71836;SDS011;59686;51.716;7.016;2022-11-11T16:55:38;4.20;;;3.42;;
71836;SDS011;59686;51.716;7.016;2022-11-11T17:00:36;5.28;;;3.65;;
71836;SDS011;59686;51.716;7.016;2022-11-11T17:05:54;6.93;;;3.95;;
71836;SDS011;59686;51.716;7.016;2022-11-11T17:11:05;5.80;;;3.80;;
71836;SDS011;59686;51.716;7.016;2022-11-11T17:13:32;5.72;;;4.03;;
71836;SDS011;59686;51.716;7.016;2022-11-11T17:16:00;6.68;;;4.05;;
71836;SDS011;59686;51.716;7.016;2022-11-11T17:18:29;6.20;;;3.92;;
71836;SDS011;59686;51.716;7.016;2022-11-11T17:20:58;6.10;;;4.30;;
71836;SDS011;59686;51.716;7.016;2022-11-11T17:23:24;7.00;;;4.10;;
71836;SDS011;59686;51.716;7.016;2022-11-11T17:25:56;8.20;;;4.55;;
71836;SDS011;59686;51.716;7.016;2022-11-11T17:28:26;8.68;;;5.00;;
71836;SDS011;59686;51.716;7.016;2022-11-11T17:30:55;8.25;;;5.20;;
71836;SDS011;59686;51.716;7.016;2022-11-11T17:33:24;8.85;;;5.25;;
71836;SDS011;59686;51.716;7.016;2022-11-11T17:35:54;8.07;;;5.22;;
71836;SDS011;59686;51.716;7.016;2022-11-11T17:38:22;8.40;;;5.95;;
71836;SDS011;59686;51.716;7.016;2022-11-11T17:40:47;12.70;;;6.38;;
71836;SDS011;59686;51.716;7.016;2022-11-11T17:43:14;9.40;;;6.13;;
71836;SDS011;59686;51.716;7.016;2022-11-11T17:45:40;10.07;;;6.75;;
71836;SDS011;59686;51.716;7.016;2022-11-11T17:48:06;11.90;;;7.28;;
71836;SDS011;59686;51.716;7.016;2022-11-11T17:50:32;11.35;;;6.68;;
71836;SDS011;59686;51.716;7.016;2022-11-11T17:52:58;11.57;;;7.57;;
71836;SDS011;59686;51.716;7.016;2022-11-11T17:55:23;12.45;;;7.75;;
71836;SDS011;59686;51.716;7.016;2022-11-11T17:57:49;15.25;;;8.43;;
71836;SDS011;59686;51.716;7.016;2022-11-11T18:00:15;12.95;;;9.00;;
71836;SDS011;59686;51.716;7.016;2022-11-11T18:02:48;14.57;;;9.27;;
71836;SDS011;59686;51.716;7.016;2022-11-11T18:05:14;12.13;;;9.18;;